Time,TemperatureF,DewpointF,PressureIn,WindDirection,WindDirectionDegrees,WindSpeedMPH,WindSpeedGustMPH,Humidity,HourlyPrecipIn,Conditions,Clouds,dailyrainin,SolarRadiationWatts/m^2,SoftwareType,DateUTC
2014-09-16 00:00:00,57.6,53.4,29.82,WNW,298,0.0,0.0,86,0.00,SKC,FEW,0.00,0.0,WeatherDisplay:10.37,2014-09-16 07:00:00,
2014-09-16 00:05:00,57.4,53.6,29.82,WNW,298,0.0,0.0,87,0.00,SKC,FEW,0.00,0.0,WeatherDisplay:10.37,2014-09-16 07:05:00,
2014-09-16 00:08:00,57.2,53.4,29.82,WNW,298,0.0,0.0,87,0.00,SKC,FEW,0.00,0.0,WeatherDisplay:10.37,2014-09-16 07:08:00,
2014-09-16 00:13:00,57.1,53.6,29.82,WNW,298,0.0,0.0,88,0.00,SKC,FEW,0.00,0.0,WeatherDisplay:10.37,2014-09-16 07:13:00,
2014-09-16 00:18:00,57.0,53.5,29.82,WNW,298,0.0,0.0,88,0.00,SKC,FEW,0.00,0.0,WeatherDisplay:10.37,2014-09-16 07:18:00,
2014-09-16 00:23:00,57.1,53.9,29.82,WNW,298,0.0,0.0,89,0.00,SKC,FEW,0.00,0.0,WeatherDisplay:10.37,2014-09-16 07:23:00,
2014-09-16 00:28:00,57.1,53.6,29.82,WNW,298,0.0,0.0,88,0.00,SKC,FEW,0.00,0.0,WeatherDisplay:10.37,2014-09-16 07:28:00,
2014-09-16 00:33:00,56.9,53.4,29.83,WNW,298,0.0,0.0,88,0.00,SKC,FEW,0.00,0.0,WeatherDisplay:10.37,2014-09-16 07:33:00,
2014-09-16 00:38:00,56.7,53.2,29.83,WNW,298,0.0,0.0,88,0.00,SKC,FEW,0.00,0.0,WeatherDisplay:10.37,2014-09-16 07:38:00,
2014-09-16 00:43:00,56.5,53.3,29.83,WNW,298,0.0,0.0,89,0.00,SKC,FEW,0.00,0.0,WeatherDisplay:10.37,2014-09-16 07:43:00,
2014-09-16 00:48:00,56.3,53.1,29.83,WNW,298,0.0,0.0,89,0.00,SKC,FEW,0.00,0.0,WeatherDisplay:10.37,2014-09-16 07:48:00,
2014-09-16 00:53:00,56.0,52.8,29.83,WNW,298,1.2,1.2,89,0.00,SKC,FEW,0.00,0.0,WeatherDisplay:10.37,2014-09-16 07:53:00,
2014-09-16 00:58:00,55.8,52.9,29.83,WNW,298,0.0,0.0,90,0.00,SKC,FEW,0.00,0.0,WeatherDisplay:10.37,2014-09-16 07:58:00,
2014-09-16 01:03:00,55.9,53.0,29.83,WNW,298,0.0,0.0,90,0.00,SKC,FEW,0.00,0.0,WeatherDisplay:10.37,2014-09-16 08:03:00,
2014-09-16 01:08:00,55.8,52.9,29.83,WNW,298,0.0,0.0,90,0.00,SKC,FEW,0.00,0.0,WeatherDisplay:10.37,2014-09-16 08:08:00,
2014-09-16 01:13:00,55.7,52.8,29.83,WNW,298,0.0,0.0,90,0.00,SKC,FEW,0.00,0.0,WeatherDisplay:10.37,2014-09-16 08:13:00,
2014-09-16 01:17:00,55.6,52.7,29.83,WNW,298,0.0,0.0,90,0.00,SKC,FEW,0.00,0.0,WeatherDisplay:10.37,2014-09-16 08:17:00,
2014-09-16 01:22:00,55.5,52.6,29.83,WNW,298,0.0,0.0,90,0.00,SKC,FEW,0.00,0.0,WeatherDisplay:10.37,2014-09-16 08:22:00,
2014-09-16 01:27:00,55.3,52.4,29.83,WNW,298,0.0,0.0,90,0.00,SKC,FEW,0.00,0.0,WeatherDisplay:10.37,2014-09-16 08:27:00,
2014-09-16 01:31:00,55.2,52.3,29.83,WNW,298,0.0,0.0,90,0.00,SKC,FEW,0.00,0.0,WeatherDisplay:10.37,2014-09-16 08:31:00,
2014-09-16 01:36:00,54.9,52.0,29.84,WNW,298,0.0,0.0,90,0.00,SKC,FEW,0.00,0.0,WeatherDisplay:10.37,2014-09-16 08:36:00,
2014-09-16 01:41:00,54.8,52.2,29.84,WNW,298,0.0,0.0,91,0.00,SKC,FEW,0.00,0.0,WeatherDisplay:10.37,2014-09-16 08:41:00,
2014-09-16 01:46:00,54.7,51.8,29.84,WNW,298,0.0,0.0,90,0.00,SKC,FEW,0.00,0.0,WeatherDisplay:10.37,2014-09-16 08:46:00,
2014-09-16 01:51:00,54.5,51.9,29.83,WNW,298,0.0,0.0,91,0.00,SKC,FEW,0.00,0.0,WeatherDisplay:10.37,2014-09-16 08:51:00,
2014-09-16 01:56:00,54.2,51.3,29.83,WNW,298,0.0,0.0,90,0.00,SKC,FEW,0.00,0.0,WeatherDisplay:10.37,2014-09-16 08:56:00,
2014-09-16 02:01:00,54.1,51.2,29.83,WNW,298,0.0,0.0,90,0.00,SKC,FEW,0.00,0.0,WeatherDisplay:10.37,2014-09-16 09:01:00,
2014-09-16 02:06:00,54.0,51.4,29.84,WNW,298,0.0,0.0,91,0.00,SKC,FEW,0.00,0.0,WeatherDisplay:10.37,2014-09-16 09:06:00,
2014-09-16 02:11:00,54.0,51.7,29.83,WNW,298,0.0,0.0,92,0.00,SKC,FEW,0.00,0.0,WeatherDisplay:10.37,2014-09-16 09:11:00,
2014-09-16 02:16:00,53.8,51.2,29.83,WNW,298,0.0,0.0,91,0.00,SKC,FEW,0.00,0.0,WeatherDisplay:10.37,2014-09-16 09:16:00,
2014-09-16 02:21:00,53.6,51.0,29.83,WNW,298,0.0,0.0,91,0.00,SKC,FEW,0.00,0.0,WeatherDisplay:10.37,2014-09-16 09:21:00,
2014-09-16 02:26:00,53.4,50.8,29.83,WNW,298,0.0,0.0,91,0.00,SKC,FEW,0.00,0.0,WeatherDisplay:10.37,2014-09-16 09:26:00,
2014-09-16 02:31:00,53.4,51.1,29.83,WNW,298,0.0,0.0,92,0.00,SKC,FEW,0.00,0.0,WeatherDisplay:10.37,2014-09-16 09:31:00,
2014-09-16 02:36:00,53.9,52.2,29.83,WNW,298,0.0,0.0,94,0.00,SKC,FEW,0.00,0.0,WeatherDisplay:10.37,2014-09-16 09:36:00,
2014-09-16 02:38:00,54.0,52.3,29.83,WNW,298,0.0,0.0,94,0.00,SKC,FEW,0.00,0.0,WeatherDisplay:10.37,2014-09-16 09:38:00,
2014-09-16 02:43:00,53.9,51.9,29.83,WNW,298,0.0,0.0,93,0.00,SKC,FEW,0.00,0.0,WeatherDisplay:10.37,2014-09-16 09:43:00,
2014-09-16 02:48:00,53.5,50.9,29.83,WNW,298,0.0,0.0,91,0.00,SKC,FEW,0.00,0.0,WeatherDisplay:10.37,2014-09-16 09:48:00,
2014-09-16 02:53:00,53.4,51.1,29.83,WNW,298,0.0,0.0,92,0.00,SKC,FEW,0.00,0.0,WeatherDisplay:10.37,2014-09-16 09:53:00,
2014-09-16 02:58:00,53.2,50.9,29.83,WNW,298,0.0,0.0,92,0.00,SKC,FEW,0.00,0.0,WeatherDisplay:10.37,2014-09-16 09:58:00,
2014-09-16 03:03:00,53.2,50.9,29.83,WNW,298,0.0,0.0,92,0.00,SKC,FEW,0.00,0.0,WeatherDisplay:10.37,2014-09-16 10:03:00,
2014-09-16 03:08:00,53.2,51.2,29.83,WNW,298,0.0,0.0,93,0.00,SKC,FEW,0.00,0.0,WeatherDisplay:10.37,2014-09-16 10:08:00,
2014-09-16 03:13:00,53.2,51.2,29.83,WNW,298,0.0,0.0,93,0.00,SKC,FEW,0.00,0.0,WeatherDisplay:10.37,2014-09-16 10:13:00,
2014-09-16 03:17:00,53.2,51.2,29.83,WNW,298,0.0,0.0,93,0.00,SKC,FEW,0.00,0.0,WeatherDisplay:10.37,2014-09-16 10:17:00,
2014-09-16 03:22:00,53.3,51.3,29.83,WNW,298,0.0,0.0,93,0.00,SKC,FEW,0.00,0.0,WeatherDisplay:10.37,2014-09-16 10:22:00,
2014-09-16 03:27:00,53.4,51.4,29.83,WNW,298,0.0,0.0,93,0.00,SKC,FEW,0.00,0.0,WeatherDisplay:10.37,2014-09-16 10:27:00,
2014-09-16 03:32:00,53.3,51.3,29.83,WNW,298,0.0,0.0,93,0.00,SKC,FEW,0.00,0.0,WeatherDisplay:10.37,2014-09-16 10:32:00,
2014-09-16 03:37:00,53.2,51.2,29.83,WNW,298,0.0,0.0,93,0.00,SKC,FEW,0.00,0.0,WeatherDisplay:10.37,2014-09-16 10:37:00,
2014-09-16 03:42:00,53.2,51.2,29.83,WNW,298,0.0,0.0,93,0.00,SKC,FEW,0.00,0.0,WeatherDisplay:10.37,2014-09-16 10:42:00,
2014-09-16 03:47:00,53.4,51.7,29.83,WNW,298,0.0,0.0,94,0.00,SKC,FEW,0.00,0.0,WeatherDisplay:10.37,2014-09-16 10:47:00,
2014-09-16 03:52:00,53.4,51.4,29.83,WNW,298,0.0,0.0,93,0.00,SKC,FEW,0.00,0.0,WeatherDisplay:10.37,2014-09-16 10:52:00,
2014-09-16 03:57:00,53.5,51.5,29.83,WNW,298,0.0,0.0,93,0.00,SKC,FEW,0.00,0.0,WeatherDisplay:10.37,2014-09-16 10:57:00,
2014-09-16 04:02:00,53.6,51.6,29.83,WNW,298,0.0,0.0,93,0.00,SKC,FEW,0.00,0.0,WeatherDisplay:10.37,2014-09-16 11:02:00,
2014-09-16 04:07:00,53.9,52.2,29.83,WNW,298,0.0,0.0,94,0.00,SKC,FEW,0.00,0.0,WeatherDisplay:10.37,2014-09-16 11:07:00,
2014-09-16 04:12:00,54.1,52.4,29.83,WNW,298,0.0,0.0,94,0.00,SKC,FEW,0.00,0.0,WeatherDisplay:10.37,2014-09-16 11:12:00,
2014-09-16 04:17:00,54.1,52.1,29.84,WNW,298,0.0,0.0,93,0.00,SKC,FEW,0.00,0.0,WeatherDisplay:10.37,2014-09-16 11:17:00,
2014-09-16 04:22:00,53.9,51.6,29.84,WNW,298,0.0,0.0,92,0.00,SKC,FEW,0.00,0.0,WeatherDisplay:10.37,2014-09-16 11:22:00,
2014-09-16 04:27:00,53.7,51.4,29.84,WNW,298,0.0,0.0,92,0.00,SKC,FEW,0.00,0.0,WeatherDisplay:10.37,2014-09-16 11:27:00,
2014-09-16 04:32:00,53.6,51.6,29.84,WNW,298,0.0,0.0,93,0.00,SKC,FEW,0.00,0.0,WeatherDisplay:10.37,2014-09-16 11:32:00,
2014-09-16 04:37:00,53.7,52.0,29.84,WNW,298,0.0,0.0,94,0.00,SKC,FEW,0.00,0.0,WeatherDisplay:10.37,2014-09-16 11:37:00,
2014-09-16 04:42:00,53.6,51.6,29.84,WNW,298,0.0,0.0,93,0.00,SKC,FEW,0.00,0.0,WeatherDisplay:10.37,2014-09-16 11:42:00,
2014-09-16 04:47:00,53.6,51.9,29.84,WNW,298,0.0,0.0,94,0.00,SKC,FEW,0.00,0.0,WeatherDisplay:10.37,2014-09-16 11:47:00,
2014-09-16 04:52:00,53.4,51.7,29.84,WNW,298,0.0,0.0,94,0.00,SKC,FEW,0.00,0.0,WeatherDisplay:10.37,2014-09-16 11:52:00,
2014-09-16 04:57:00,53.4,51.7,29.84,WNW,298,0.0,0.0,94,0.00,SKC,FEW,0.00,0.0,WeatherDisplay:10.37,2014-09-16 11:57:00,
2014-09-16 05:02:00,53.3,51.6,29.84,WNW,298,0.0,0.0,94,0.00,SKC,FEW,0.00,0.0,WeatherDisplay:10.37,2014-09-16 12:02:00,
2014-09-16 05:07:00,53.2,51.5,29.84,WNW,298,0.0,0.0,94,0.00,SKC,FEW,0.00,0.0,WeatherDisplay:10.37,2014-09-16 12:07:00,
2014-09-16 05:11:00,53.2,51.5,29.84,WNW,298,0.0,0.0,94,0.00,SKC,FEW,0.00,0.0,WeatherDisplay:10.37,2014-09-16 12:11:00,
2014-09-16 05:16:00,53.0,51.3,29.85,WNW,298,0.0,0.0,94,0.00,SKC,FEW,0.00,0.0,WeatherDisplay:10.37,2014-09-16 12:16:00,
2014-09-16 05:21:00,53.0,51.3,29.85,WNW,298,0.0,0.0,94,0.00,SKC,FEW,0.00,0.0,WeatherDisplay:10.37,2014-09-16 12:21:00,
2014-09-16 05:26:00,52.9,51.2,29.84,WNW,298,0.0,0.0,94,0.00,SKC,FEW,0.00,0.0,WeatherDisplay:10.37,2014-09-16 12:26:00,
2014-09-16 05:31:00,52.9,51.2,29.85,WNW,298,0.0,0.0,94,0.00,SKC,FEW,0.00,0.0,WeatherDisplay:10.37,2014-09-16 12:31:00,
2014-09-16 05:36:00,52.8,51.1,29.84,WNW,298,0.0,0.0,94,0.00,SKC,FEW,0.00,0.0,WeatherDisplay:10.37,2014-09-16 12:36:00,
2014-09-16 05:41:00,52.7,51.0,29.85,WNW,298,0.0,0.0,94,0.00,SKC,FEW,0.00,0.0,WeatherDisplay:10.37,2014-09-16 12:41:00,
2014-09-16 05:46:00,52.7,51.0,29.85,WNW,298,0.0,0.0,94,0.00,SKC,FEW,0.00,0.0,WeatherDisplay:10.37,2014-09-16 12:46:00,
2014-09-16 05:51:00,52.6,51.2,29.85,WNW,298,0.0,0.0,95,0.00,SKC,FEW,0.00,0.0,WeatherDisplay:10.37,2014-09-16 12:51:00,
2014-09-16 05:56:00,52.6,51.2,29.85,WNW,298,0.0,0.0,95,0.00,SKC,FEW,0.00,0.0,WeatherDisplay:10.37,2014-09-16 12:56:00,
2014-09-16 06:01:00,52.6,51.2,29.85,WNW,298,0.0,0.0,95,0.00,SKC,FEW,0.00,0.0,WeatherDisplay:10.37,2014-09-16 13:01:00,
2014-09-16 06:06:00,52.5,51.1,29.85,WNW,298,0.0,0.0,95,0.00,SKC,FEW,0.00,0.0,WeatherDisplay:10.37,2014-09-16 13:06:00,
2014-09-16 06:11:00,52.6,51.2,29.85,WNW,298,0.0,0.0,95,0.00,SKC,FEW,0.00,0.0,WeatherDisplay:10.37,2014-09-16 13:11:00,
2014-09-16 06:16:00,52.5,51.1,29.85,WNW,298,0.0,0.0,95,0.00,SKC,FEW,0.00,0.0,WeatherDisplay:10.37,2014-09-16 13:16:00,
2014-09-16 06:21:00,52.3,50.9,29.85,WNW,298,0.0,0.0,95,0.00,SKC,FEW,0.00,0.0,WeatherDisplay:10.37,2014-09-16 13:21:00,
2014-09-16 06:26:00,52.4,51.0,29.85,WNW,298,0.0,0.0,95,0.00,SKC,FEW,0.00,0.0,WeatherDisplay:10.37,2014-09-16 13:26:00,
2014-09-16 06:31:00,52.3,50.9,29.85,WNW,298,0.0,0.0,95,0.00,SKC,FEW,0.00,0.0,WeatherDisplay:10.37,2014-09-16 13:31:00,
2014-09-16 06:36:00,52.2,50.8,29.86,WNW,298,0.0,0.0,95,0.00,SKC,FEW,0.00,0.0,WeatherDisplay:10.37,2014-09-16 13:36:00,
2014-09-16 06:41:00,52.1,50.7,29.86,WNW,298,0.0,0.0,95,0.00,SKC,FEW,0.00,0.0,WeatherDisplay:10.37,2014-09-16 13:41:00,
2014-09-16 06:46:00,52.1,50.7,29.86,WNW,298,0.0,0.0,95,0.00,SKC,FEW,0.00,0.0,WeatherDisplay:10.37,2014-09-16 13:46:00,
2014-09-16 06:51:00,52.0,50.6,29.86,WNW,298,0.0,0.0,95,0.00,SKC,FEW,0.00,0.0,WeatherDisplay:10.37,2014-09-16 13:51:00,
2014-09-16 06:56:00,52.1,51.0,29.86,WNW,298,0.0,0.0,96,0.00,SKC,FEW,0.00,5.0,WeatherDisplay:10.37,2014-09-16 13:56:00,
2014-09-16 07:01:00,52.2,51.1,29.87,WNW,298,0.0,0.0,96,0.00,SCT,FEW,0.00,9.0,WeatherDisplay:10.37,2014-09-16 14:01:00,
2014-09-16 07:06:00,52.4,51.3,29.87,WNW,298,0.0,0.0,96,0.00,SCT,FEW,0.00,12.0,WeatherDisplay:10.37,2014-09-16 14:06:00,
2014-09-16 07:11:00,52.7,51.9,29.86,WNW,298,0.0,0.0,97,0.00,SCT,FEW,0.00,18.0,WeatherDisplay:10.37,2014-09-16 14:11:00,
2014-09-16 07:16:00,53.0,52.2,29.87,WNW,298,0.0,0.0,97,0.00,SCT,FEW,0.00,30.0,WeatherDisplay:10.37,2014-09-16 14:16:00,
2014-09-16 07:21:00,53.3,52.5,29.86,WNW,298,0.0,0.0,97,0.00,SCT,FEW,0.00,42.0,WeatherDisplay:10.37,2014-09-16 14:21:00,
2014-09-16 07:26:00,53.8,52.7,29.86,WNW,298,0.0,0.0,96,0.00,SCT,FEW,0.00,51.0,WeatherDisplay:10.37,2014-09-16 14:26:00,
2014-09-16 07:31:00,54.2,53.1,29.86,WNW,298,1.2,0.0,96,0.00,SCT,FEW,0.00,63.0,WeatherDisplay:10.37,2014-09-16 14:31:00,
2014-09-16 07:36:00,54.7,53.3,29.86,WNW,298,0.0,0.0,95,0.00,SCT,FEW,0.00,76.0,WeatherDisplay:10.37,2014-09-16 14:36:00,
2014-09-16 07:41:00,54.9,53.2,29.86,WNW,298,0.0,0.0,94,0.00,SCT,FEW,0.00,77.0,WeatherDisplay:10.37,2014-09-16 14:41:00,
2014-09-16 07:46:00,54.8,52.8,29.86,WNW,298,0.0,0.0,93,0.00,SCT,FEW,0.00,97.0,WeatherDisplay:10.37,2014-09-16 14:46:00,
2014-09-16 07:51:00,54.8,52.8,29.86,WNW,298,0.0,0.0,93,0.00,SCT,FEW,0.00,109.0,WeatherDisplay:10.37,2014-09-16 14:51:00,
2014-09-16 07:56:00,54.8,52.8,29.86,WNW,298,0.0,0.0,93,0.00,SCT,FEW,0.00,121.0,WeatherDisplay:10.37,2014-09-16 14:56:00,
2014-09-16 08:01:00,55.3,53.3,29.87,WNW,298,0.0,0.0,93,0.00,BKN,FEW,0.00,132.0,WeatherDisplay:10.37,2014-09-16 15:01:00,
2014-09-16 08:06:00,56.3,54.0,29.87,WNW,298,0.0,0.0,92,0.00,BKN,FEW,0.00,146.0,WeatherDisplay:10.37,2014-09-16 15:06:00,
2014-09-16 08:07:00,56.5,54.2,29.87,WNW,298,0.0,0.0,92,0.00,BKN,FEW,0.00,148.0,WeatherDisplay:10.37,2014-09-16 15:07:00,
2014-09-16 08:12:00,57.1,54.5,29.87,WNW,298,0.0,0.0,91,0.00,BKN,FEW,0.00,158.0,WeatherDisplay:10.37,2014-09-16 15:12:00,
2014-09-16 08:17:00,57.9,55.0,29.87,WNW,298,0.0,0.0,90,0.00,BKN,FEW,0.00,169.0,WeatherDisplay:10.37,2014-09-16 15:17:00,
2014-09-16 08:22:00,58.7,55.5,29.87,WNW,298,0.0,0.0,89,0.00,BKN,FEW,0.00,183.0,WeatherDisplay:10.37,2014-09-16 15:22:00,
2014-09-16 08:27:00,59.6,56.0,29.87,WNW,298,0.0,0.0,88,0.00,BKN,FEW,0.00,195.0,WeatherDisplay:10.37,2014-09-16 15:27:00,
2014-09-16 08:32:00,60.5,56.3,29.87,WNW,298,2.3,2.3,86,0.00,BKN,FEW,0.00,209.0,WeatherDisplay:10.37,2014-09-16 15:32:00,
2014-09-16 08:37:00,60.9,56.7,29.87,SE,140,3.5,3.5,86,0.00,BKN,FEW,0.00,221.0,WeatherDisplay:10.37,2014-09-16 15:37:00,
2014-09-16 08:42:00,60.9,56.4,29.87,SSE,156,6.9,6.9,85,0.00,BKN,FEW,0.00,185.0,WeatherDisplay:10.37,2014-09-16 15:42:00,
2014-09-16 08:47:00,60.8,56.3,29.87,SE,136,3.5,3.5,85,0.00,BKN,FEW,0.00,62.0,WeatherDisplay:10.37,2014-09-16 15:47:00,
2014-09-16 08:52:00,61.1,56.2,29.87,SSE,157,4.0,4.0,84,0.00,BKN,FEW,0.00,262.0,WeatherDisplay:10.37,2014-09-16 15:52:00,
2014-09-16 08:57:00,61.5,56.0,29.87,SSE,157,4.0,4.0,82,0.00,BKN,FEW,0.00,274.0,WeatherDisplay:10.37,2014-09-16 15:57:00,
2014-09-16 09:02:00,62.1,55.9,29.87,SSE,153,2.3,2.3,80,0.00,FEW,,0.00,288.0,WeatherDisplay:10.37,2014-09-16 16:02:00,
2014-09-16 09:07:00,62.5,54.8,29.87,SE,136,2.3,2.3,76,0.00,FEW,,0.00,304.0,WeatherDisplay:10.37,2014-09-16 16:07:00,
2014-09-16 09:12:00,63.0,53.8,29.87,SE,146,4.6,4.6,72,0.00,FEW,,0.00,318.0,WeatherDisplay:10.37,2014-09-16 16:12:00,
2014-09-16 09:17:00,63.4,54.2,29.87,SE,146,0.0,0.0,72,0.00,FEW,,0.00,332.0,WeatherDisplay:10.37,2014-09-16 16:17:00,
2014-09-16 09:22:00,64.0,54.4,29.87,SE,146,1.0,1.0,71,0.00,FEW,,0.00,348.0,WeatherDisplay:10.37,2014-09-16 16:22:00,
2014-09-16 09:27:00,64.4,54.0,29.87,SE,145,4.6,4.6,69,0.00,FEW,,0.00,359.0,WeatherDisplay:10.37,2014-09-16 16:27:00,
2014-09-16 09:32:00,64.8,54.0,29.87,SE,140,3.5,3.5,68,0.00,FEW,,0.00,376.0,WeatherDisplay:10.37,2014-09-16 16:32:00,
2014-09-16 09:37:00,65.0,52.9,29.88,SE,140,0.0,0.0,65,0.00,FEW,,0.00,387.0,WeatherDisplay:10.37,2014-09-16 16:37:00,
2014-09-16 09:42:00,65.4,53.7,29.88,ESE,122,3.5,3.5,66,0.00,FEW,,0.00,403.0,WeatherDisplay:10.37,2014-09-16 16:42:00,
2014-09-16 09:47:00,65.5,53.4,29.88,SE,132,5.8,5.8,65,0.00,FEW,,0.00,413.0,WeatherDisplay:10.37,2014-09-16 16:47:00,
2014-09-16 09:52:00,65.7,54.0,29.88,SSE,164,4.6,4.6,66,0.00,FEW,,0.00,424.0,WeatherDisplay:10.37,2014-09-16 16:52:00,
2014-09-16 09:57:00,65.8,54.5,29.88,SE,143,6.0,6.0,67,0.00,FEW,,0.00,434.0,WeatherDisplay:10.37,2014-09-16 16:57:00,
2014-09-16 10:02:00,65.9,54.6,29.88,East,80,5.8,5.8,67,0.00,FEW,,0.00,446.0,WeatherDisplay:10.37,2014-09-16 17:02:00,
2014-09-16 10:07:00,66.1,54.8,29.88,SSE,158,7.0,7.0,67,0.00,FEW,,0.00,457.0,WeatherDisplay:10.37,2014-09-16 17:07:00,
2014-09-16 10:12:00,66.0,54.7,29.88,SSE,161,4.6,4.6,67,0.00,FEW,,0.00,469.0,WeatherDisplay:10.37,2014-09-16 17:12:00,
2014-09-16 10:14:00,66.0,54.7,29.88,South,172,5.0,5.0,67,0.00,FEW,,0.00,473.0,WeatherDisplay:10.37,2014-09-16 17:14:00,
2014-09-16 10:19:00,66.3,54.2,29.88,SSE,152,6.9,6.9,65,0.00,FEW,,0.00,483.0,WeatherDisplay:10.37,2014-09-16 17:19:00,
2014-09-16 10:24:00,66.4,53.8,29.88,SE,142,10.0,10.0,64,0.00,FEW,,0.00,492.0,WeatherDisplay:10.37,2014-09-16 17:24:00,
2014-09-16 10:29:00,66.5,54.4,29.88,SSE,167,6.0,6.0,65,0.00,FEW,,0.00,501.0,WeatherDisplay:10.37,2014-09-16 17:29:00,
2014-09-16 10:34:00,66.5,53.1,29.88,SSE,160,10.4,10.4,62,0.00,FEW,,0.00,513.0,WeatherDisplay:10.37,2014-09-16 17:34:00,
2014-09-16 10:39:00,66.3,53.8,29.88,SE,140,9.2,9.2,64,0.00,FEW,,0.00,522.0,WeatherDisplay:10.37,2014-09-16 17:39:00,
2014-09-16 10:44:00,66.1,53.6,29.87,SE,134,8.1,8.1,64,0.00,FEW,,0.00,533.0,WeatherDisplay:10.37,2014-09-16 17:44:00,
2014-09-16 10:49:00,66.0,53.5,29.87,SSE,150,9.2,9.2,64,0.00,FEW,,0.00,541.0,WeatherDisplay:10.37,2014-09-16 17:49:00,
2014-09-16 10:54:00,66.1,54.4,29.88,ESE,123,9.2,9.2,66,0.00,FEW,,0.00,550.0,WeatherDisplay:10.37,2014-09-16 17:54:00,
2014-09-16 10:59:00,66.1,54.8,29.88,South,174,9.2,9.2,67,0.00,FEW,,0.00,559.0,WeatherDisplay:10.37,2014-09-16 17:59:00,
2014-09-16 11:04:00,65.9,54.6,29.88,ESE,123,10.4,10.4,67,0.00,FEW,,0.00,568.0,WeatherDisplay:10.37,2014-09-16 18:04:00,
2014-09-16 11:09:00,65.3,53.2,29.88,SSE,157,11.5,11.5,65,0.00,FEW,,0.00,578.0,WeatherDisplay:10.37,2014-09-16 18:09:00,
2014-09-16 11:14:00,65.0,53.8,29.87,SE,130,11.5,11.5,67,0.00,FEW,,0.00,589.0,WeatherDisplay:10.37,2014-09-16 18:14:00,
2014-09-16 11:19:00,65.6,54.3,29.88,SE,146,9.2,9.2,67,0.00,FEW,,0.00,592.0,WeatherDisplay:10.37,2014-09-16 18:19:00,
2014-09-16 11:24:00,65.4,54.2,29.88,SSE,156,11.5,11.5,67,0.00,FEW,,0.00,601.0,WeatherDisplay:10.37,2014-09-16 18:24:00,
2014-09-16 11:29:00,65.0,54.2,29.88,ESE,112,11.5,11.5,68,0.00,FEW,,0.00,603.0,WeatherDisplay:10.37,2014-09-16 18:29:00,
2014-09-16 11:34:00,65.0,54.2,29.88,SE,140,10.4,10.4,68,0.00,FEW,,0.00,601.0,WeatherDisplay:10.37,2014-09-16 18:34:00,
2014-09-16 11:39:00,65.1,54.3,29.88,SSE,157,11.5,11.5,68,0.00,FEW,,0.00,613.0,WeatherDisplay:10.37,2014-09-16 18:39:00,
2014-09-16 11:44:00,65.2,54.4,29.88,SE,145,11.5,11.5,68,0.00,FEW,,0.00,619.0,WeatherDisplay:10.37,2014-09-16 18:44:00,
2014-09-16 11:48:00,65.6,54.8,29.87,SE,137,8.0,8.0,68,0.00,FEW,,0.00,619.0,WeatherDisplay:10.37,2014-09-16 18:48:00,
2014-09-16 11:53:00,65.6,54.3,29.87,SE,142,11.5,11.5,67,0.00,FEW,,0.00,629.0,WeatherDisplay:10.37,2014-09-16 18:53:00,
2014-09-16 11:58:00,65.3,55.3,29.87,East,88,8.1,8.1,70,0.00,FEW,,0.00,631.0,WeatherDisplay:10.37,2014-09-16 18:58:00,
2014-09-16 12:03:00,65.3,54.9,29.87,SSE,148,10.4,10.4,69,0.00,FEW,,0.00,638.0,WeatherDisplay:10.37,2014-09-16 19:03:00,
2014-09-16 12:08:00,65.2,54.8,29.87,SSE,157,11.5,11.5,69,0.00,FEW,,0.00,642.0,WeatherDisplay:10.37,2014-09-16 19:08:00,
2014-09-16 12:13:00,65.6,55.5,29.87,SE,134,8.1,8.1,70,0.00,FEW,,0.00,638.0,WeatherDisplay:10.37,2014-09-16 19:13:00,
2014-09-16 12:18:00,65.8,55.3,29.87,SSE,148,5.8,5.8,69,0.00,FEW,,0.00,635.0,WeatherDisplay:10.37,2014-09-16 19:18:00,
2014-09-16 12:23:00,66.2,55.7,29.87,SE,140,8.1,8.1,69,0.00,FEW,,0.00,636.0,WeatherDisplay:10.37,2014-09-16 19:23:00,
2014-09-16 12:28:00,66.6,56.1,29.86,SE,126,4.6,4.6,69,0.00,FEW,,0.00,638.0,WeatherDisplay:10.37,2014-09-16 19:28:00,
2014-09-16 12:33:00,67.1,55.8,29.87,ESE,116,9.2,9.2,67,0.00,FEW,,0.00,642.0,WeatherDisplay:10.37,2014-09-16 19:33:00,
2014-09-16 12:38:00,67.1,56.2,29.86,SSE,155,5.8,5.8,68,0.00,FEW,,0.00,642.0,WeatherDisplay:10.37,2014-09-16 19:38:00,
2014-09-16 12:43:00,67.6,55.8,29.86,ESE,105,4.6,4.6,66,0.00,FEW,,0.00,656.0,WeatherDisplay:10.37,2014-09-16 19:43:00,
2014-09-16 12:48:00,67.8,56.4,29.86,SE,133,6.9,6.9,67,0.00,FEW,,0.00,649.0,WeatherDisplay:10.37,2014-09-16 19:48:00,
2014-09-16 12:53:00,68.3,56.1,29.86,SE,128,6.0,6.0,65,0.00,FEW,,0.00,673.0,WeatherDisplay:10.37,2014-09-16 19:53:00,
2014-09-16 12:58:00,68.7,56.5,29.86,SSW,200,6.9,6.9,65,0.00,FEW,,0.00,652.0,WeatherDisplay:10.37,2014-09-16 19:58:00,
2014-09-16 13:03:00,68.9,57.1,29.86,SE,126,6.9,6.9,66,0.00,FEW,,0.00,650.0,WeatherDisplay:10.37,2014-09-16 20:03:00,
2014-09-16 13:08:00,69.0,57.2,29.86,SE,130,6.9,6.9,66,0.00,FEW,,0.00,650.0,WeatherDisplay:10.37,2014-09-16 20:08:00,
2014-09-16 13:11:00,69.0,56.3,29.86,ESE,123,9.2,9.2,64,0.00,FEW,,0.00,650.0,WeatherDisplay:10.37,2014-09-16 20:11:00,
2014-09-16 13:16:00,69.1,57.3,29.86,ESE,109,9.2,9.2,66,0.00,FEW,,0.00,659.0,WeatherDisplay:10.37,2014-09-16 20:16:00,
2014-09-16 13:21:00,68.9,57.1,29.86,ESE,117,11.0,11.0,66,0.00,FEW,,0.00,659.0,WeatherDisplay:10.37,2014-09-16 20:21:00,
2014-09-16 13:26:00,69.0,56.7,29.86,ESE,114,6.9,6.9,65,0.00,FEW,,0.00,650.0,WeatherDisplay:10.37,2014-09-16 20:26:00,
2014-09-16 13:31:00,68.6,56.4,29.86,SSE,153,10.0,10.0,65,0.00,FEW,,0.00,649.0,WeatherDisplay:10.37,2014-09-16 20:31:00,
2014-09-16 13:36:00,68.2,56.0,29.86,SSE,153,9.2,9.2,65,0.00,FEW,,0.00,652.0,WeatherDisplay:10.37,2014-09-16 20:36:00,
2014-09-16 13:41:00,68.4,56.2,29.86,SE,128,8.1,8.1,65,0.00,FEW,,0.00,659.0,WeatherDisplay:10.37,2014-09-16 20:41:00,
2014-09-16 13:46:00,68.3,55.6,29.86,SE,146,12.7,12.7,64,0.00,FEW,,0.00,657.0,WeatherDisplay:10.37,2014-09-16 20:46:00,
2014-09-16 13:51:00,67.8,55.2,29.86,SSE,159,11.5,11.5,64,0.00,FEW,,0.00,657.0,WeatherDisplay:10.37,2014-09-16 20:51:00,
2014-09-16 13:56:00,67.5,54.9,29.86,East,99,11.5,11.5,64,0.00,FEW,,0.00,638.0,WeatherDisplay:10.37,2014-09-16 20:56:00,
2014-09-16 14:01:00,67.6,55.4,29.86,ESE,121,12.7,12.7,65,0.00,FEW,,0.00,661.0,WeatherDisplay:10.37,2014-09-16 21:01:00,
2014-09-16 14:06:00,68.1,55.5,29.85,East,92,7.0,7.0,64,0.00,FEW,,0.00,626.0,WeatherDisplay:10.37,2014-09-16 21:06:00,
2014-09-16 14:11:00,68.0,55.8,29.85,SE,132,10.4,10.4,65,0.00,FEW,,0.00,670.0,WeatherDisplay:10.37,2014-09-16 21:11:00,
2014-09-16 14:16:00,67.7,55.5,29.85,SE,133,11.5,11.5,65,0.00,FEW,,0.00,439.0,WeatherDisplay:10.37,2014-09-16 21:16:00,
2014-09-16 14:21:00,67.1,55.4,29.85,SSE,147,11.5,11.5,66,0.00,FEW,,0.00,246.0,WeatherDisplay:10.37,2014-09-16 21:21:00,
2014-09-16 14:26:00,67.3,56.0,29.85,SE,137,11.5,11.5,67,0.00,FEW,,0.00,250.0,WeatherDisplay:10.37,2014-09-16 21:26:00,
2014-09-16 14:31:00,67.2,55.9,29.85,South,171,11.5,11.5,67,0.00,FEW,,0.00,272.0,WeatherDisplay:10.37,2014-09-16 21:31:00,
2014-09-16 14:36:00,67.0,55.7,29.85,SSE,149,9.2,9.2,67,0.00,FEW,,0.00,278.0,WeatherDisplay:10.37,2014-09-16 21:36:00,
2014-09-16 14:41:00,66.5,55.6,29.85,SSE,149,6.9,6.9,68,0.00,FEW,,0.00,260.0,WeatherDisplay:10.37,2014-09-16 21:41:00,
2014-09-16 14:46:00,66.7,55.8,29.85,SE,140,9.0,9.0,68,0.00,FEW,,0.00,232.0,WeatherDisplay:10.37,2014-09-16 21:46:00,
2014-09-16 14:51:00,66.6,55.3,29.85,SE,138,10.4,10.4,67,0.00,FEW,,0.00,225.0,WeatherDisplay:10.37,2014-09-16 21:51:00,
2014-09-16 14:56:00,66.8,55.9,29.85,ESE,119,8.1,8.1,68,0.00,FEW,,0.00,236.0,WeatherDisplay:10.37,2014-09-16 21:56:00,
2014-09-16 15:01:00,67.0,55.7,29.85,SSE,153,6.9,6.9,67,0.00,FEW,,0.00,269.0,WeatherDisplay:10.37,2014-09-16 22:01:00,
2014-09-16 15:06:00,67.0,56.1,29.84,ESE,109,8.1,8.1,68,0.00,SCT,FEW,0.00,322.0,WeatherDisplay:10.37,2014-09-16 22:06:00,
2014-09-16 15:10:00,67.9,56.5,29.84,SSE,147,10.0,10.0,67,0.00,SCT,FEW,0.00,330.0,WeatherDisplay:10.37,2014-09-16 22:10:00,
2014-09-16 15:15:00,68.2,56.8,29.84,ESE,119,9.2,9.2,67,0.00,SCT,FEW,0.00,313.0,WeatherDisplay:10.37,2014-09-16 22:15:00,
2014-09-16 15:20:00,68.6,55.9,29.84,SSE,161,11.5,11.5,64,0.00,SCT,FEW,0.00,207.0,WeatherDisplay:10.37,2014-09-16 22:20:00,
2014-09-16 15:25:00,68.9,55.8,29.84,ESE,123,11.5,11.5,63,0.00,SCT,FEW,0.00,151.0,WeatherDisplay:10.37,2014-09-16 22:25:00,
2014-09-16 15:30:00,69.1,55.1,29.84,SE,136,7.0,7.0,61,0.00,SCT,FEW,0.00,130.0,WeatherDisplay:10.37,2014-09-16 22:30:00,
2014-09-16 15:35:00,69.5,55.0,29.84,ESE,117,11.5,11.5,60,0.00,SCT,FEW,0.00,114.0,WeatherDisplay:10.37,2014-09-16 22:35:00,
2014-09-16 15:40:00,69.3,55.3,29.84,SE,131,11.0,11.0,61,0.00,SCT,FEW,0.00,114.0,WeatherDisplay:10.37,2014-09-16 22:40:00,
2014-09-16 15:45:00,68.8,54.3,29.84,SE,126,12.7,12.7,60,0.00,SCT,FEW,0.00,102.0,WeatherDisplay:10.37,2014-09-16 22:45:00,
2014-09-16 15:50:00,68.6,54.2,29.83,SE,137,12.7,12.7,60,0.00,SCT,FEW,0.00,102.0,WeatherDisplay:10.37,2014-09-16 22:50:00,
2014-09-16 15:55:00,68.6,54.2,29.84,South,170,8.1,8.1,60,0.00,SCT,FEW,0.00,185.0,WeatherDisplay:10.37,2014-09-16 22:55:00,
2014-09-16 16:00:00,68.8,54.8,29.84,SE,130,8.1,8.1,61,0.00,SCT,FEW,0.00,130.0,WeatherDisplay:10.37,2014-09-16 23:00:00,
2014-09-16 16:05:00,69.1,54.6,29.84,SSE,148,8.1,8.1,60,0.00,BKN,FEW,0.00,406.0,WeatherDisplay:10.37,2014-09-16 23:05:00,
2014-09-16 16:10:00,68.9,54.4,29.84,ESE,123,12.7,12.7,60,0.00,BKN,FEW,0.00,438.0,WeatherDisplay:10.37,2014-09-16 23:10:00,
2014-09-16 16:15:00,68.6,54.2,29.84,South,177,11.5,11.5,60,0.00,BKN,FEW,0.00,149.0,WeatherDisplay:10.37,2014-09-16 23:15:00,
2014-09-16 16:20:00,68.5,54.5,29.84,SE,141,8.1,8.1,61,0.00,BKN,FEW,0.00,121.0,WeatherDisplay:10.37,2014-09-16 23:20:00,
2014-09-16 16:25:00,68.3,54.8,29.84,SE,139,8.0,8.0,62,0.00,BKN,FEW,0.00,369.0,WeatherDisplay:10.37,2014-09-16 23:25:00,
2014-09-16 16:30:00,68.1,55.0,29.84,ESE,121,9.2,9.2,63,0.00,BKN,FEW,0.00,204.0,WeatherDisplay:10.37,2014-09-16 23:30:00,
2014-09-16 16:35:00,67.8,54.7,29.83,ESE,121,11.5,11.5,63,0.00,BKN,FEW,0.00,197.0,WeatherDisplay:10.37,2014-09-16 23:35:00,
2014-09-16 16:40:00,67.6,55.0,29.83,ESE,109,5.8,5.8,64,0.00,BKN,FEW,0.00,186.0,WeatherDisplay:10.37,2014-09-16 23:40:00,
2014-09-16 16:45:00,67.6,54.6,29.83,SE,140,9.2,9.2,63,0.00,BKN,FEW,0.00,225.0,WeatherDisplay:10.37,2014-09-16 23:45:00,
2014-09-16 16:50:00,67.4,54.8,29.83,SE,142,11.5,11.5,64,0.00,BKN,FEW,0.00,229.0,WeatherDisplay:10.37,2014-09-16 23:50:00,
2014-09-16 16:55:00,67.5,55.3,29.83,SE,141,5.8,5.8,65,0.00,BKN,FEW,0.00,186.0,WeatherDisplay:10.37,2014-09-16 23:55:00,
2014-09-16 17:00:00,67.4,55.2,29.83,SSE,152,6.9,6.9,65,0.00,BKN,FEW,0.00,216.0,WeatherDisplay:10.37,2014-09-17 00:00:00,
2014-09-16 17:05:00,67.2,55.0,29.83,SSE,155,9.2,9.2,65,0.00,SCT,FEW,0.00,253.0,WeatherDisplay:10.37,2014-09-17 00:05:00,
2014-09-16 17:10:00,67.2,54.6,29.83,SE,132,8.1,8.1,64,0.00,SCT,FEW,0.00,153.0,WeatherDisplay:10.37,2014-09-17 00:10:00,
2014-09-16 17:15:00,67.3,54.7,29.83,SE,133,7.0,7.0,64,0.00,SCT,FEW,0.00,204.0,WeatherDisplay:10.37,2014-09-17 00:15:00,
2014-09-16 17:20:00,67.3,55.1,29.83,SE,146,9.0,9.0,65,0.00,SCT,FEW,0.00,149.0,WeatherDisplay:10.37,2014-09-17 00:20:00,
2014-09-16 17:25:00,67.2,55.5,29.83,ESE,115,8.1,8.1,66,0.00,SCT,FEW,0.00,181.0,WeatherDisplay:10.37,2014-09-17 00:25:00,
2014-09-16 17:30:00,67.0,55.7,29.83,SE,126,8.1,8.1,67,0.00,SCT,FEW,0.00,142.0,WeatherDisplay:10.37,2014-09-17 00:30:00,
2014-09-16 17:35:00,66.6,56.1,29.83,SSE,153,8.1,8.1,69,0.00,SCT,FEW,0.00,121.0,WeatherDisplay:10.37,2014-09-17 00:35:00,
2014-09-16 17:40:00,66.1,56.0,29.83,SE,146,6.9,6.9,70,0.00,SCT,FEW,0.00,118.0,WeatherDisplay:10.37,2014-09-17 00:40:00,
2014-09-16 17:45:00,65.9,56.2,29.83,SE,132,9.0,9.0,71,0.00,SCT,FEW,0.00,127.0,WeatherDisplay:10.37,2014-09-17 00:45:00,
2014-09-16 17:50:00,65.8,56.1,29.83,SE,138,9.2,9.2,71,0.00,SCT,FEW,0.00,144.0,WeatherDisplay:10.37,2014-09-17 00:50:00,
2014-09-16 17:53:00,65.8,56.5,29.83,ESE,120,8.1,8.1,72,0.00,SCT,FEW,0.00,146.0,WeatherDisplay:10.37,2014-09-17 00:53:00,
2014-09-16 17:58:00,66.0,56.3,29.83,ESE,106,9.2,9.2,71,0.00,SCT,FEW,0.00,144.0,WeatherDisplay:10.37,2014-09-17 00:58:00,
2014-09-16 18:03:00,66.0,55.9,29.83,SE,133,8.1,8.1,70,0.00,BKN,FEW,0.00,151.0,WeatherDisplay:10.37,2014-09-17 01:03:00,
2014-09-16 18:08:00,66.1,56.4,29.83,SSE,147,9.0,9.0,71,0.00,BKN,FEW,0.00,142.0,WeatherDisplay:10.37,2014-09-17 01:08:00,
2014-09-16 18:13:00,66.0,56.3,29.83,ESE,116,5.8,5.8,71,0.00,BKN,FEW,0.00,93.0,WeatherDisplay:10.37,2014-09-17 01:13:00,
2014-09-16 18:18:00,65.8,56.5,29.83,ESE,115,9.2,9.2,72,0.00,BKN,FEW,0.00,69.0,WeatherDisplay:10.37,2014-09-17 01:18:00,
2014-09-16 18:23:00,65.6,56.7,29.83,SE,137,5.8,5.8,73,0.00,BKN,FEW,0.00,58.0,WeatherDisplay:10.37,2014-09-17 01:23:00,
2014-09-16 18:28:00,65.2,56.7,29.83,SE,132,12.7,12.7,74,0.00,BKN,FEW,0.00,49.0,WeatherDisplay:10.37,2014-09-17 01:28:00,
2014-09-16 18:33:00,64.7,56.6,29.83,South,174,8.1,8.1,75,0.00,BKN,FEW,0.00,42.0,WeatherDisplay:10.37,2014-09-17 01:33:00,
2014-09-16 18:38:00,64.2,56.5,29.83,SE,133,8.1,8.1,76,0.00,BKN,FEW,0.00,33.0,WeatherDisplay:10.37,2014-09-17 01:38:00,
2014-09-16 18:43:00,63.8,56.4,29.83,ESE,114,11.0,11.0,77,0.00,BKN,FEW,0.00,26.0,WeatherDisplay:10.37,2014-09-17 01:43:00,
2014-09-16 18:48:00,63.6,56.6,29.83,ESE,121,8.1,8.1,78,0.00,BKN,FEW,0.00,19.0,WeatherDisplay:10.37,2014-09-17 01:48:00,
2014-09-16 18:53:00,63.3,56.7,29.83,SSE,152,5.8,5.8,79,0.00,BKN,FEW,0.00,16.0,WeatherDisplay:10.37,2014-09-17 01:53:00,
2014-09-16 18:58:00,63.1,57.2,29.83,SE,128,6.0,6.0,81,0.00,BKN,FEW,0.00,12.0,WeatherDisplay:10.37,2014-09-17 01:58:00,
2014-09-16 19:03:00,62.8,56.9,29.84,SSE,152,8.1,8.1,81,0.00,OVC,FEW,0.00,9.0,WeatherDisplay:10.37,2014-09-17 02:03:00,
2014-09-16 19:08:00,62.5,56.9,29.83,ESE,105,5.8,5.8,82,0.00,OVC,FEW,0.00,7.0,WeatherDisplay:10.37,2014-09-17 02:08:00,
2014-09-16 19:13:00,62.4,57.2,29.83,SSE,150,5.8,5.8,83,0.00,OVC,FEW,0.00,0.0,WeatherDisplay:10.37,2014-09-17 02:13:00,
2014-09-16 19:18:00,62.3,57.1,29.83,SE,125,5.0,5.0,83,0.00,OVC,FEW,0.00,0.0,WeatherDisplay:10.37,2014-09-17 02:18:00,
2014-09-16 19:23:00,62.2,57.0,29.83,SE,126,5.0,5.0,83,0.00,OVC,FEW,0.00,0.0,WeatherDisplay:10.37,2014-09-17 02:23:00,
2014-09-16 19:28:00,62.2,57.3,29.83,ENE,77,7.0,7.0,84,0.00,OVC,FEW,0.00,0.0,WeatherDisplay:10.37,2014-09-17 02:28:00,
2014-09-16 19:33:00,62.1,57.2,29.83,ESE,113,9.2,9.2,84,0.00,OVC,FEW,0.00,0.0,WeatherDisplay:10.37,2014-09-17 02:33:00,
2014-09-16 19:38:00,62.0,57.1,29.84,SE,145,4.6,4.6,84,0.00,OVC,FEW,0.00,0.0,WeatherDisplay:10.37,2014-09-17 02:38:00,
2014-09-16 19:43:00,61.9,57.0,29.84,South,172,8.1,8.1,84,0.00,OVC,FEW,0.00,0.0,WeatherDisplay:10.37,2014-09-17 02:43:00,
2014-09-16 19:48:00,61.9,56.7,29.84,SE,134,5.8,5.8,83,0.00,OVC,FEW,0.00,0.0,WeatherDisplay:10.37,2014-09-17 02:48:00,
2014-09-16 19:53:00,62.0,56.8,29.84,East,83,3.5,3.5,83,0.00,OVC,FEW,0.00,0.0,WeatherDisplay:10.37,2014-09-17 02:53:00,
2014-09-16 19:58:00,62.2,56.6,29.84,East,96,3.5,3.5,82,0.00,OVC,FEW,0.00,0.0,WeatherDisplay:10.37,2014-09-17 02:58:00,
2014-09-16 20:03:00,62.5,56.6,29.84,SE,141,3.5,3.5,81,0.00,BKN,FEW,0.00,0.0,WeatherDisplay:10.37,2014-09-17 03:03:00,
2014-09-16 20:08:00,62.8,56.5,29.84,SE,134,5.8,5.8,80,0.00,BKN,FEW,0.00,0.0,WeatherDisplay:10.37,2014-09-17 03:08:00,
2014-09-16 20:13:00,63.1,56.8,29.84,SE,137,6.9,6.9,80,0.00,BKN,FEW,0.00,0.0,WeatherDisplay:10.37,2014-09-17 03:13:00,
2014-09-16 20:18:00,63.4,56.8,29.84,ESE,121,6.9,6.9,79,0.00,BKN,FEW,0.00,0.0,WeatherDisplay:10.37,2014-09-17 03:18:00,
2014-09-16 20:23:00,63.5,56.9,29.84,SE,134,5.8,5.8,79,0.00,BKN,FEW,0.00,0.0,WeatherDisplay:10.37,2014-09-17 03:23:00,
2014-09-16 20:28:00,63.5,56.9,29.84,ESE,102,4.6,4.6,79,0.00,BKN,FEW,0.00,0.0,WeatherDisplay:10.37,2014-09-17 03:28:00,
2014-09-16 20:33:00,63.4,56.8,29.85,ESE,102,0.0,0.0,79,0.00,BKN,FEW,0.00,0.0,WeatherDisplay:10.37,2014-09-17 03:33:00,
2014-09-16 20:38:00,63.2,56.9,29.85,ESE,102,1.2,0.0,80,0.00,BKN,FEW,0.00,0.0,WeatherDisplay:10.37,2014-09-17 03:38:00,
2014-09-16 20:43:00,63.1,56.8,29.85,ESE,102,2.3,2.3,80,0.00,BKN,FEW,0.00,0.0,WeatherDisplay:10.37,2014-09-17 03:43:00,
2014-09-16 20:48:00,62.9,56.6,29.85,ESE,102,0.0,0.0,80,0.00,BKN,FEW,0.00,0.0,WeatherDisplay:10.37,2014-09-17 03:48:00,
2014-09-16 20:53:00,62.9,56.3,29.85,ESE,102,0.0,0.0,79,0.00,BKN,FEW,0.00,0.0,WeatherDisplay:10.37,2014-09-17 03:53:00,
2014-09-16 20:58:00,62.8,56.2,29.85,ESE,102,1.2,1.2,79,0.00,BKN,FEW,0.00,0.0,WeatherDisplay:10.37,2014-09-17 03:58:00,
2014-09-16 21:01:00,62.7,55.7,29.85,East,94,4.0,4.0,78,0.00,BKN,FEW,0.00,0.0,WeatherDisplay:10.37,2014-09-17 04:01:00,
2014-09-16 21:06:00,62.7,55.4,29.85,ESE,114,3.5,3.5,77,0.00,BKN,FEW,0.00,0.0,WeatherDisplay:10.37,2014-09-17 04:06:00,
2014-09-16 21:11:00,62.7,55.4,29.85,ESE,102,3.5,3.5,77,0.00,BKN,FEW,0.00,0.0,WeatherDisplay:10.37,2014-09-17 04:11:00,
2014-09-16 21:16:00,62.7,55.7,29.85,SE,136,3.5,3.5,78,0.00,BKN,FEW,0.00,0.0,WeatherDisplay:10.37,2014-09-17 04:16:00,
2014-09-16 21:21:00,62.7,55.7,29.85,SE,136,4.0,4.0,78,0.00,BKN,FEW,0.00,0.0,WeatherDisplay:10.37,2014-09-17 04:21:00,
2014-09-16 21:26:00,62.7,55.7,29.85,ESE,109,4.0,4.0,78,0.00,BKN,FEW,0.00,0.0,WeatherDisplay:10.37,2014-09-17 04:26:00,
2014-09-16 21:31:00,62.7,55.7,29.85,ENE,71,4.6,4.6,78,0.00,BKN,FEW,0.00,0.0,WeatherDisplay:10.37,2014-09-17 04:31:00,
2014-09-16 21:36:00,62.7,56.1,29.85,East,79,3.5,3.5,79,0.00,BKN,FEW,0.00,0.0,WeatherDisplay:10.37,2014-09-17 04:36:00,
2014-09-16 21:41:00,62.6,56.0,29.85,ENE,73,4.6,4.6,79,0.00,BKN,FEW,0.00,0.0,WeatherDisplay:10.37,2014-09-17 04:41:00,
2014-09-16 21:46:00,62.6,56.0,29.85,ENE,69,3.5,3.5,79,0.00,BKN,FEW,0.00,0.0,WeatherDisplay:10.37,2014-09-17 04:46:00,
2014-09-16 21:51:00,62.5,55.9,29.85,ENE,78,3.5,3.5,79,0.00,BKN,FEW,0.00,0.0,WeatherDisplay:10.37,2014-09-17 04:51:00,
2014-09-16 21:56:00,62.5,55.9,29.85,ENE,78,3.5,3.5,79,0.00,BKN,FEW,0.00,0.0,WeatherDisplay:10.37,2014-09-17 04:56:00,
2014-09-16 22:01:00,62.5,55.9,29.84,ENE,78,2.3,2.3,79,0.00,OVC,FEW,0.00,0.0,WeatherDisplay:10.37,2014-09-17 05:01:00,